sensor_id;sensor_type;location;lat;lon;timestamp;temperature;humidity
25991;DHT22;13779;-33.886;151.198;2022-10-30T00:00:05;20.70;90.20
25991;DHT22;13779;-33.886;151.198;2022-10-30T00:02:34;20.80;90.00
25991;DHT22;13779;-33.886;151.198;2022-10-30T00:05:04;20.90;90.30
25991;DHT22;13779;-33.886;151.198;2022-10-30T00:07:35;20.90;90.40
25991;DHT22;13779;-33.886;151.198;2022-10-30T00:10:05;20.90;89.90
25991;DHT22;13779;-33.886;151.198;2022-10-30T00:12:36;21.00;90.70
25991;DHT22;13779;-33.886;151.198;2022-10-30T00:15:07;21.10;90.80
25991;DHT22;13779;-33.886;151.198;2022-10-30T00:17:38;21.20;90.50
25991;DHT22;13779;-33.886;151.198;2022-10-30T00:20:09;21.10;91.20
25991;DHT22;13779;-33.886;151.198;2022-10-30T00:22:40;21.20;91.40
25991;DHT22;13779;-33.886;151.198;2022-10-30T00:25:12;21.20;91.20
25991;DHT22;13779;-33.886;151.198;2022-10-30T00:27:42;21.20;91.30
25991;DHT22;13779;-33.886;151.198;2022-10-30T00:30:16;21.30;91.20
25991;DHT22;13779;-33.886;151.198;2022-10-30T00:32:47;21.30;91.30
25991;DHT22;13779;-33.886;151.198;2022-10-30T00:35:18;21.30;91.60
25991;DHT22;13779;-33.886;151.198;2022-10-30T00:37:48;21.30;92.40
25991;DHT22;13779;-33.886;151.198;2022-10-30T00:40:22;21.40;92.50
25991;DHT22;13779;-33.886;151.198;2022-10-30T00:42:56;21.40;92.50
25991;DHT22;13779;-33.886;151.198;2022-10-30T00:45:27;21.40;92.60
25991;DHT22;13779;-33.886;151.198;2022-10-30T00:48:01;21.40;92.40
25991;DHT22;13779;-33.886;151.198;2022-10-30T00:50:37;21.40;92.90
25991;DHT22;13779;-33.886;151.198;2022-10-30T00:53:14;21.50;92.90
25991;DHT22;13779;-33.886;151.198;2022-10-30T00:55:50;21.50;92.60
25991;DHT22;13779;-33.886;151.198;2022-10-30T00:58:28;21.50;92.90
25991;DHT22;13779;-33.886;151.198;2022-10-30T01:01:03;21.60;92.80
25991;DHT22;13779;-33.886;151.198;2022-10-30T01:03:35;21.60;93.20
25991;DHT22;13779;-33.886;151.198;2022-10-30T01:06:09;21.70;92.90
25991;DHT22;13779;-33.886;151.198;2022-10-30T01:08:40;21.70;91.70
25991;DHT22;13779;-33.886;151.198;2022-10-30T01:11:12;21.70;92.40
25991;DHT22;13779;-33.886;151.198;2022-10-30T01:13:48;21.70;92.80
25991;DHT22;13779;-33.886;151.198;2022-10-30T01:38:31;21.60;97.20
25991;DHT22;13779;-33.886;151.198;2022-10-30T01:41:04;21.70;97.40
25991;DHT22;13779;-33.886;151.198;2022-10-30T01:43:35;21.70;97.40
25991;DHT22;13779;-33.886;151.198;2022-10-30T01:54:45;21.60;97.10
25991;DHT22;13779;-33.886;151.198;2022-10-30T01:57:42;21.50;96.20
25991;DHT22;13779;-33.886;151.198;2022-10-30T02:00:18;21.60;96.90
25991;DHT22;13779;-33.886;151.198;2022-10-30T02:02:49;21.60;97.30
25991;DHT22;13779;-33.886;151.198;2022-10-30T02:05:37;21.50;97.00
25991;DHT22;13779;-33.886;151.198;2022-10-30T02:08:09;21.40;97.40
25991;DHT22;13779;-33.886;151.198;2022-10-30T02:10:41;21.50;97.80
25991;DHT22;13779;-33.886;151.198;2022-10-30T02:13:13;21.60;98.00
25991;DHT22;13779;-33.886;151.198;2022-10-30T02:15:45;21.60;97.00
25991;DHT22;13779;-33.886;151.198;2022-10-30T02:18:16;21.50;97.60
25991;DHT22;13779;-33.886;151.198;2022-10-30T02:20:47;21.50;98.40
25991;DHT22;13779;-33.886;151.198;2022-10-30T02:23:18;21.30;98.40
25991;DHT22;13779;-33.886;151.198;2022-10-30T02:25:49;21.40;98.30
25991;DHT22;13779;-33.886;151.198;2022-10-30T02:28:19;21.30;98.50
25991;DHT22;13779;-33.886;151.198;2022-10-30T02:30:50;21.30;98.60
25991;DHT22;13779;-33.886;151.198;2022-10-30T02:33:21;21.40;98.30
25991;DHT22;13779;-33.886;151.198;2022-10-30T02:35:53;21.40;97.30
25991;DHT22;13779;-33.886;151.198;2022-10-30T02:38:23;21.50;97.50
25991;DHT22;13779;-33.886;151.198;2022-10-30T02:40:55;21.50;96.00
25991;DHT22;13779;-33.886;151.198;2022-10-30T02:43:26;21.60;95.20
25991;DHT22;13779;-33.886;151.198;2022-10-30T02:45:58;21.60;95.90
25991;DHT22;13779;-33.886;151.198;2022-10-30T02:48:30;21.50;95.60
25991;DHT22;13779;-33.886;151.198;2022-10-30T02:51:02;21.40;96.00
25991;DHT22;13779;-33.886;151.198;2022-10-30T02:53:34;21.40;96.90
25991;DHT22;13779;-33.886;151.198;2022-10-30T02:56:12;21.30;96.20
25991;DHT22;13779;-33.886;151.198;2022-10-30T02:58:43;21.30;96.30
25991;DHT22;13779;-33.886;151.198;2022-10-30T03:01:18;21.30;97.50
25991;DHT22;13779;-33.886;151.198;2022-10-30T03:03:49;21.30;98.90
25991;DHT22;13779;-33.886;151.198;2022-10-30T03:06:20;21.10;99.70
25991;DHT22;13779;-33.886;151.198;2022-10-30T03:08:50;21.10;99.60
25991;DHT22;13779;-33.886;151.198;2022-10-30T03:11:21;21.10;99.70
25991;DHT22;13779;-33.886;151.198;2022-10-30T03:13:52;21.10;99.90
25991;DHT22;13779;-33.886;151.198;2022-10-30T03:16:25;21.00;99.90
25991;DHT22;13779;-33.886;151.198;2022-10-30T03:18:59;20.90;99.90
25991;DHT22;13779;-33.886;151.198;2022-10-30T03:21:29;20.80;99.90
25991;DHT22;13779;-33.886;151.198;2022-10-30T03:24:00;20.90;99.90
25991;DHT22;13779;-33.886;151.198;2022-10-30T03:26:30;21.00;99.90
25991;DHT22;13779;-33.886;151.198;2022-10-30T03:29:01;21.20;99.90
25991;DHT22;13779;-33.886;151.198;2022-10-30T03:31:32;21.20;99.90
25991;DHT22;13779;-33.886;151.198;2022-10-30T03:34:02;21.20;99.90
25991;DHT22;13779;-33.886;151.198;2022-10-30T03:36:33;21.20;99.90
25991;DHT22;13779;-33.886;151.198;2022-10-30T03:39:04;21.20;99.90
25991;DHT22;13779;-33.886;151.198;2022-10-30T03:41:34;21.20;99.90
25991;DHT22;13779;-33.886;151.198;2022-10-30T03:44:05;21.10;99.10
25991;DHT22;13779;-33.886;151.198;2022-10-30T03:46:36;21.10;99.40
25991;DHT22;13779;-33.886;151.198;2022-10-30T03:49:07;21.20;99.90
25991;DHT22;13779;-33.886;151.198;2022-10-30T03:51:38;21.20;99.90
25991;DHT22;13779;-33.886;151.198;2022-10-30T03:54:08;21.20;99.90
25991;DHT22;13779;-33.886;151.198;2022-10-30T03:56:38;21.20;99.90
25991;DHT22;13779;-33.886;151.198;2022-10-30T03:59:09;21.20;99.90
25991;DHT22;13779;-33.886;151.198;2022-10-30T04:01:40;21.20;99.90
25991;DHT22;13779;-33.886;151.198;2022-10-30T04:04:11;21.10;99.90
25991;DHT22;13779;-33.886;151.198;2022-10-30T04:06:41;21.10;99.90
25991;DHT22;13779;-33.886;151.198;2022-10-30T04:09:12;21.10;99.90
25991;DHT22;13779;-33.886;151.198;2022-10-30T04:11:43;21.10;99.90
25991;DHT22;13779;-33.886;151.198;2022-10-30T04:14:14;21.00;99.90
25991;DHT22;13779;-33.886;151.198;2022-10-30T04:16:44;20.80;99.90
25991;DHT22;13779;-33.886;151.198;2022-10-30T04:19:15;20.80;99.90
25991;DHT22;13779;-33.886;151.198;2022-10-30T04:21:45;20.70;99.90
25991;DHT22;13779;-33.886;151.198;2022-10-30T04:24:18;20.50;99.90
25991;DHT22;13779;-33.886;151.198;2022-10-30T04:26:50;20.40;99.90
25991;DHT22;13779;-33.886;151.198;2022-10-30T04:29:21;20.40;99.90
25991;DHT22;13779;-33.886;151.198;2022-10-30T04:31:51;20.30;99.90
25991;DHT22;13779;-33.886;151.198;2022-10-30T04:34:22;20.30;99.90
25991;DHT22;13779;-33.886;151.198;2022-10-30T04:36:52;20.30;99.90
25991;DHT22;13779;-33.886;151.198;2022-10-30T04:39:24;20.40;99.90
25991;DHT22;13779;-33.886;151.198;2022-10-30T04:41:54;20.40;99.90
25991;DHT22;13779;-33.886;151.198;2022-10-30T04:44:25;20.40;99.90
25991;DHT22;13779;-33.886;151.198;2022-10-30T04:46:55;20.40;99.90
25991;DHT22;13779;-33.886;151.198;2022-10-30T04:49:26;20.60;99.90
25991;DHT22;13779;-33.886;151.198;2022-10-30T04:51:57;20.60;99.90
25991;DHT22;13779;-33.886;151.198;2022-10-30T04:54:27;20.60;99.90
25991;DHT22;13779;-33.886;151.198;2022-10-30T04:56:58;20.60;99.90
25991;DHT22;13779;-33.886;151.198;2022-10-30T04:59:28;20.60;99.90
25991;DHT22;13779;-33.886;151.198;2022-10-30T05:01:59;20.50;99.90
25991;DHT22;13779;-33.886;151.198;2022-10-30T05:04:29;20.40;99.90
25991;DHT22;13779;-33.886;151.198;2022-10-30T05:07:00;20.30;99.90
25991;DHT22;13779;-33.886;151.198;2022-10-30T05:09:32;20.30;99.90
25991;DHT22;13779;-33.886;151.198;2022-10-30T05:12:03;20.20;99.90
25991;DHT22;13779;-33.886;151.198;2022-10-30T05:14:35;20.10;99.90
25991;DHT22;13779;-33.886;151.198;2022-10-30T05:17:06;20.10;99.90
25991;DHT22;13779;-33.886;151.198;2022-10-30T05:19:36;20.20;99.90
25991;DHT22;13779;-33.886;151.198;2022-10-30T05:22:07;20.20;99.90
25991;DHT22;13779;-33.886;151.198;2022-10-30T05:24:39;20.10;99.90
25991;DHT22;13779;-33.886;151.198;2022-10-30T05:27:09;20.10;99.90
25991;DHT22;13779;-33.886;151.198;2022-10-30T05:29:40;20.10;99.90
25991;DHT22;13779;-33.886;151.198;2022-10-30T05:32:11;20.10;99.90
25991;DHT22;13779;-33.886;151.198;2022-10-30T05:34:44;20.10;99.90
25991;DHT22;13779;-33.886;151.198;2022-10-30T05:37:15;20.20;99.90
25991;DHT22;13779;-33.886;151.198;2022-10-30T05:39:47;20.20;99.90
25991;DHT22;13779;-33.886;151.198;2022-10-30T05:42:19;20.10;99.90
25991;DHT22;13779;-33.886;151.198;2022-10-30T05:44:49;20.10;99.90
25991;DHT22;13779;-33.886;151.198;2022-10-30T05:47:28;20.20;99.90
25991;DHT22;13779;-33.886;151.198;2022-10-30T05:49:58;20.20;99.90
25991;DHT22;13779;-33.886;151.198;2022-10-30T05:52:29;20.10;99.90
25991;DHT22;13779;-33.886;151.198;2022-10-30T05:55:00;19.90;99.90
25991;DHT22;13779;-33.886;151.198;2022-10-30T05:57:30;19.90;99.90
25991;DHT22;13779;-33.886;151.198;2022-10-30T06:00:02;19.80;99.90
25991;DHT22;13779;-33.886;151.198;2022-10-30T06:02:33;19.80;99.90
25991;DHT22;13779;-33.886;151.198;2022-10-30T06:05:04;19.80;99.90
25991;DHT22;13779;-33.886;151.198;2022-10-30T06:07:34;19.80;99.90
25991;DHT22;13779;-33.886;151.198;2022-10-30T06:10:05;19.80;99.90
25991;DHT22;13779;-33.886;151.198;2022-10-30T06:12:39;19.80;99.90
25991;DHT22;13779;-33.886;151.198;2022-10-30T06:15:09;19.80;99.90
25991;DHT22;13779;-33.886;151.198;2022-10-30T06:17:39;19.90;99.90
25991;DHT22;13779;-33.886;151.198;2022-10-30T06:20:10;19.80;99.90
25991;DHT22;13779;-33.886;151.198;2022-10-30T06:22:40;19.90;99.90
25991;DHT22;13779;-33.886;151.198;2022-10-30T06:25:10;19.90;99.90
25991;DHT22;13779;-33.886;151.198;2022-10-30T06:27:41;19.90;99.90
25991;DHT22;13779;-33.886;151.198;2022-10-30T06:30:11;20.00;99.90
25991;DHT22;13779;-33.886;151.198;2022-10-30T06:32:44;20.10;99.90
25991;DHT22;13779;-33.886;151.198;2022-10-30T06:35:16;20.00;99.90
25991;DHT22;13779;-33.886;151.198;2022-10-30T06:37:48;20.10;99.90
25991;DHT22;13779;-33.886;151.198;2022-10-30T06:40:18;20.20;99.90
25991;DHT22;13779;-33.886;151.198;2022-10-30T06:42:50;20.20;99.90
25991;DHT22;13779;-33.886;151.198;2022-10-30T06:45:22;20.20;99.90
25991;DHT22;13779;-33.886;151.198;2022-10-30T06:47:53;20.10;99.90
25991;DHT22;13779;-33.886;151.198;2022-10-30T06:50:23;20.00;99.90
25991;DHT22;13779;-33.886;151.198;2022-10-30T06:52:54;20.00;99.90
25991;DHT22;13779;-33.886;151.198;2022-10-30T06:55:24;20.00;99.90
25991;DHT22;13779;-33.886;151.198;2022-10-30T06:57:57;19.90;99.90
25991;DHT22;13779;-33.886;151.198;2022-10-30T07:00:27;19.90;99.90
25991;DHT22;13779;-33.886;151.198;2022-10-30T07:02:59;19.90;99.90
25991;DHT22;13779;-33.886;151.198;2022-10-30T07:05:29;20.00;99.90
25991;DHT22;13779;-33.886;151.198;2022-10-30T07:08:00;19.90;99.90
25991;DHT22;13779;-33.886;151.198;2022-10-30T07:10:31;19.80;99.90
25991;DHT22;13779;-33.886;151.198;2022-10-30T07:13:02;19.80;99.90
25991;DHT22;13779;-33.886;151.198;2022-10-30T07:15:32;19.80;99.90
25991;DHT22;13779;-33.886;151.198;2022-10-30T07:18:03;19.70;99.90
25991;DHT22;13779;-33.886;151.198;2022-10-30T07:20:34;19.70;99.90
25991;DHT22;13779;-33.886;151.198;2022-10-30T07:23:04;19.80;99.90
25991;DHT22;13779;-33.886;151.198;2022-10-30T07:25:34;19.80;99.90
25991;DHT22;13779;-33.886;151.198;2022-10-30T07:28:04;19.80;99.90
25991;DHT22;13779;-33.886;151.198;2022-10-30T07:30:35;19.70;99.90
25991;DHT22;13779;-33.886;151.198;2022-10-30T07:33:06;19.80;99.90
25991;DHT22;13779;-33.886;151.198;2022-10-30T07:35:37;19.70;99.90
25991;DHT22;13779;-33.886;151.198;2022-10-30T07:38:11;19.70;99.90
25991;DHT22;13779;-33.886;151.198;2022-10-30T07:40:42;19.70;99.90
25991;DHT22;13779;-33.886;151.198;2022-10-30T07:43:13;19.70;99.90
25991;DHT22;13779;-33.886;151.198;2022-10-30T07:45:47;19.80;99.90
25991;DHT22;13779;-33.886;151.198;2022-10-30T07:48:17;19.80;99.90
25991;DHT22;13779;-33.886;151.198;2022-10-30T07:50:47;19.80;99.90
25991;DHT22;13779;-33.886;151.198;2022-10-30T07:53:19;19.80;99.90
25991;DHT22;13779;-33.886;151.198;2022-10-30T07:55:49;19.70;99.90
25991;DHT22;13779;-33.886;151.198;2022-10-30T07:58:20;19.70;99.90
25991;DHT22;13779;-33.886;151.198;2022-10-30T08:00:50;19.70;99.90
25991;DHT22;13779;-33.886;151.198;2022-10-30T08:03:20;19.80;99.90
25991;DHT22;13779;-33.886;151.198;2022-10-30T08:05:50;19.70;99.90
25991;DHT22;13779;-33.886;151.198;2022-10-30T08:08:32;19.70;99.90
25991;DHT22;13779;-33.886;151.198;2022-10-30T08:11:06;19.70;99.90
25991;DHT22;13779;-33.886;151.198;2022-10-30T08:13:36;19.60;99.90
25991;DHT22;13779;-33.886;151.198;2022-10-30T08:16:07;19.60;99.90
25991;DHT22;13779;-33.886;151.198;2022-10-30T08:18:38;19.70;99.90
25991;DHT22;13779;-33.886;151.198;2022-10-30T08:21:15;19.60;99.90
25991;DHT22;13779;-33.886;151.198;2022-10-30T08:23:48;19.60;99.90
25991;DHT22;13779;-33.886;151.198;2022-10-30T08:26:20;19.60;99.90
25991;DHT22;13779;-33.886;151.198;2022-10-30T08:28:52;19.60;99.90
25991;DHT22;13779;-33.886;151.198;2022-10-30T08:31:30;19.50;99.90
25991;DHT22;13779;-33.886;151.198;2022-10-30T08:34:01;19.50;99.90
25991;DHT22;13779;-33.886;151.198;2022-10-30T08:36:36;19.50;99.90
25991;DHT22;13779;-33.886;151.198;2022-10-30T08:39:12;19.40;99.90
25991;DHT22;13779;-33.886;151.198;2022-10-30T08:41:44;19.40;99.90
25991;DHT22;13779;-33.886;151.198;2022-10-30T08:44:15;19.40;99.90
25991;DHT22;13779;-33.886;151.198;2022-10-30T08:46:46;19.40;99.90
25991;DHT22;13779;-33.886;151.198;2022-10-30T08:49:17;19.40;99.90
25991;DHT22;13779;-33.886;151.198;2022-10-30T08:51:48;19.40;99.90
25991;DHT22;13779;-33.886;151.198;2022-10-30T08:54:18;19.40;99.90
25991;DHT22;13779;-33.886;151.198;2022-10-30T08:56:50;19.40;99.90
25991;DHT22;13779;-33.886;151.198;2022-10-30T08:59:21;19.40;99.90
25991;DHT22;13779;-33.886;151.198;2022-10-30T09:01:51;19.40;99.90
25991;DHT22;13779;-33.886;151.198;2022-10-30T09:04:23;19.40;99.90
25991;DHT22;13779;-33.886;151.198;2022-10-30T09:06:53;19.40;99.90
25991;DHT22;13779;-33.886;151.198;2022-10-30T09:09:24;19.40;99.90
25991;DHT22;13779;-33.886;151.198;2022-10-30T09:11:54;19.40;99.90
25991;DHT22;13779;-33.886;151.198;2022-10-30T09:14:25;19.30;99.90
25991;DHT22;13779;-33.886;151.198;2022-10-30T09:16:55;19.40;99.90
25991;DHT22;13779;-33.886;151.198;2022-10-30T09:19:25;19.40;99.90
25991;DHT22;13779;-33.886;151.198;2022-10-30T09:21:58;19.40;99.90
25991;DHT22;13779;-33.886;151.198;2022-10-30T09:24:28;19.30;99.90
25991;DHT22;13779;-33.886;151.198;2022-10-30T09:26:58;19.40;99.90
25991;DHT22;13779;-33.886;151.198;2022-10-30T09:29:28;19.30;99.90
25991;DHT22;13779;-33.886;151.198;2022-10-30T09:32:00;19.30;99.90
25991;DHT22;13779;-33.886;151.198;2022-10-30T09:34:32;19.30;99.90
25991;DHT22;13779;-33.886;151.198;2022-10-30T09:37:03;19.40;99.90
25991;DHT22;13779;-33.886;151.198;2022-10-30T09:39:33;19.30;99.90
25991;DHT22;13779;-33.886;151.198;2022-10-30T09:45:40;19.30;99.90
25991;DHT22;13779;-33.886;151.198;2022-10-30T09:48:43;19.40;99.90
25991;DHT22;13779;-33.886;151.198;2022-10-30T09:54:07;19.40;99.90
25991;DHT22;13779;-33.886;151.198;2022-10-30T09:56:41;19.40;99.90
25991;DHT22;13779;-33.886;151.198;2022-10-30T10:02:26;19.40;99.90
25991;DHT22;13779;-33.886;151.198;2022-10-30T10:07:54;19.30;99.90
25991;DHT22;13779;-33.886;151.198;2022-10-30T10:10:44;19.30;99.90
25991;DHT22;13779;-33.886;151.198;2022-10-30T10:21:28;19.40;99.90
25991;DHT22;13779;-33.886;151.198;2022-10-30T10:24:03;19.30;99.90
25991;DHT22;13779;-33.886;151.198;2022-10-30T10:26:43;19.30;99.90
25991;DHT22;13779;-33.886;151.198;2022-10-30T10:32:05;19.20;99.90
25991;DHT22;13779;-33.886;151.198;2022-10-30T10:40:55;19.20;99.90
25991;DHT22;13779;-33.886;151.198;2022-10-30T10:51:41;19.30;99.90
25991;DHT22;13779;-33.886;151.198;2022-10-30T10:57:06;19.30;99.90
25991;DHT22;13779;-33.886;151.198;2022-10-30T10:59:41;19.30;99.90
25991;DHT22;13779;-33.886;151.198;2022-10-30T11:08:00;19.20;99.90
25991;DHT22;13779;-33.886;151.198;2022-10-30T11:10:35;19.30;99.90
25991;DHT22;13779;-33.886;151.198;2022-10-30T11:13:05;19.30;99.90
25991;DHT22;13779;-33.886;151.198;2022-10-30T11:18:39;19.30;99.90
25991;DHT22;13779;-33.886;151.198;2022-10-30T11:21:22;19.30;99.90
25991;DHT22;13779;-33.886;151.198;2022-10-30T11:23:52;19.20;99.90
25991;DHT22;13779;-33.886;151.198;2022-10-30T11:26:29;19.20;99.90
25991;DHT22;13779;-33.886;151.198;2022-10-30T11:29:13;19.20;99.90
25991;DHT22;13779;-33.886;151.198;2022-10-30T11:31:44;19.20;99.90
25991;DHT22;13779;-33.886;151.198;2022-10-30T11:36:50;19.20;99.90
25991;DHT22;13779;-33.886;151.198;2022-10-30T11:42:23;19.20;99.90
25991;DHT22;13779;-33.886;151.198;2022-10-30T11:44:54;19.20;99.90
25991;DHT22;13779;-33.886;151.198;2022-10-30T11:47:36;19.30;99.90
25991;DHT22;13779;-33.886;151.198;2022-10-30T11:50:27;19.30;99.90
25991;DHT22;13779;-33.886;151.198;2022-10-30T11:53:15;19.30;99.90
25991;DHT22;13779;-33.886;151.198;2022-10-30T11:55:49;19.30;99.90
25991;DHT22;13779;-33.886;151.198;2022-10-30T11:58:43;19.30;99.90
25991;DHT22;13779;-33.886;151.198;2022-10-30T12:01:24;19.30;99.90
25991;DHT22;13779;-33.886;151.198;2022-10-30T12:03:55;19.30;99.90
25991;DHT22;13779;-33.886;151.198;2022-10-30T12:06:27;19.20;99.90
25991;DHT22;13779;-33.886;151.198;2022-10-30T12:09:00;19.20;99.90
25991;DHT22;13779;-33.886;151.198;2022-10-30T12:11:34;19.20;99.90
25991;DHT22;13779;-33.886;151.198;2022-10-30T12:14:12;19.20;99.90
25991;DHT22;13779;-33.886;151.198;2022-10-30T12:16:54;19.10;99.90
25991;DHT22;13779;-33.886;151.198;2022-10-30T12:19:26;19.20;99.90
25991;DHT22;13779;-33.886;151.198;2022-10-30T12:22:05;19.20;99.90
25991;DHT22;13779;-33.886;151.198;2022-10-30T12:24:36;19.20;99.90
25991;DHT22;13779;-33.886;151.198;2022-10-30T12:27:12;19.20;99.90
25991;DHT22;13779;-33.886;151.198;2022-10-30T12:39:14;19.30;99.90
25991;DHT22;13779;-33.886;151.198;2022-10-30T12:41:44;19.20;99.90
25991;DHT22;13779;-33.886;151.198;2022-10-30T12:44:24;19.20;99.90
25991;DHT22;13779;-33.886;151.198;2022-10-30T12:49:40;19.20;99.90
25991;DHT22;13779;-33.886;151.198;2022-10-30T12:57:37;19.30;99.90
25991;DHT22;13779;-33.886;151.198;2022-10-30T13:00:13;19.20;99.90
25991;DHT22;13779;-33.886;151.198;2022-10-30T13:05:40;19.30;99.90
25991;DHT22;13779;-33.886;151.198;2022-10-30T13:13:42;19.30;99.90
25991;DHT22;13779;-33.886;151.198;2022-10-30T13:16:18;19.30;99.90
25991;DHT22;13779;-33.886;151.198;2022-10-30T13:18:53;19.30;99.90
25991;DHT22;13779;-33.886;151.198;2022-10-30T13:21:36;19.30;99.90
25991;DHT22;13779;-33.886;151.198;2022-10-30T13:30:13;19.20;99.90
25991;DHT22;13779;-33.886;151.198;2022-10-30T13:33:52;19.30;99.90
25991;DHT22;13779;-33.886;151.198;2022-10-30T13:36:14;19.30;99.90
25991;DHT22;13779;-33.886;151.198;2022-10-30T13:50:07;19.30;99.90
25991;DHT22;13779;-33.886;151.198;2022-10-30T13:52:45;19.20;99.90
25991;DHT22;13779;-33.886;151.198;2022-10-30T13:55:30;19.20;99.90
25991;DHT22;13779;-33.886;151.198;2022-10-30T13:58:36;19.20;99.90
25991;DHT22;13779;-33.886;151.198;2022-10-30T14:04:06;19.20;99.90
25991;DHT22;13779;-33.886;151.198;2022-10-30T14:10:05;19.20;99.90
25991;DHT22;13779;-33.886;151.198;2022-10-30T14:13:04;19.20;99.90
25991;DHT22;13779;-33.886;151.198;2022-10-30T14:15:46;19.20;99.90
25991;DHT22;13779;-33.886;151.198;2022-10-30T14:18:58;19.20;99.90
25991;DHT22;13779;-33.886;151.198;2022-10-30T14:21:58;19.10;99.90
25991;DHT22;13779;-33.886;151.198;2022-10-30T14:24:30;19.10;99.90
25991;DHT22;13779;-33.886;151.198;2022-10-30T14:39:56;19.20;99.90
25991;DHT22;13779;-33.886;151.198;2022-10-30T14:45:28;19.20;99.90
25991;DHT22;13779;-33.886;151.198;2022-10-30T14:48:20;19.10;99.90
25991;DHT22;13779;-33.886;151.198;2022-10-30T14:51:21;19.10;99.90
25991;DHT22;13779;-33.886;151.198;2022-10-30T14:53:58;19.10;99.90
25991;DHT22;13779;-33.886;151.198;2022-10-30T14:56:41;19.10;99.90
25991;DHT22;13779;-33.886;151.198;2022-10-30T15:10:02;19.10;99.90
25991;DHT22;13779;-33.886;151.198;2022-10-30T15:15:17;19.10;99.90
25991;DHT22;13779;-33.886;151.198;2022-10-30T15:17:53;19.10;99.90
25991;DHT22;13779;-33.886;151.198;2022-10-30T15:20:30;19.00;99.90
25991;DHT22;13779;-33.886;151.198;2022-10-30T15:23:26;19.00;99.90
25991;DHT22;13779;-33.886;151.198;2022-10-30T15:26:21;19.10;99.90
25991;DHT22;13779;-33.886;151.198;2022-10-30T15:28:53;19.00;99.90
25991;DHT22;13779;-33.886;151.198;2022-10-30T15:31:25;19.10;99.90
25991;DHT22;13779;-33.886;151.198;2022-10-30T15:33:57;19.00;99.90
25991;DHT22;13779;-33.886;151.198;2022-10-30T15:36:41;19.00;99.90
25991;DHT22;13779;-33.886;151.198;2022-10-30T15:39:14;19.10;99.90
25991;DHT22;13779;-33.886;151.198;2022-10-30T15:44:29;19.10;99.90
25991;DHT22;13779;-33.886;151.198;2022-10-30T15:47:01;19.00;99.90
25991;DHT22;13779;-33.886;151.198;2022-10-30T15:49:37;19.10;99.90
25991;DHT22;13779;-33.886;151.198;2022-10-30T15:52:24;19.00;99.90
25991;DHT22;13779;-33.886;151.198;2022-10-30T15:55:07;19.10;99.90
25991;DHT22;13779;-33.886;151.198;2022-10-30T15:57:48;19.10;99.90
25991;DHT22;13779;-33.886;151.198;2022-10-30T16:00:36;19.10;99.90
25991;DHT22;13779;-33.886;151.198;2022-10-30T16:03:16;19.10;99.90
25991;DHT22;13779;-33.886;151.198;2022-10-30T16:05:47;19.10;99.90
25991;DHT22;13779;-33.886;151.198;2022-10-30T16:08:23;19.10;99.90
25991;DHT22;13779;-33.886;151.198;2022-10-30T16:10:53;19.00;99.90
25991;DHT22;13779;-33.886;151.198;2022-10-30T16:13:30;19.00;99.90
25991;DHT22;13779;-33.886;151.198;2022-10-30T16:16:01;19.10;99.90
25991;DHT22;13779;-33.886;151.198;2022-10-30T16:18:33;19.10;99.90
25991;DHT22;13779;-33.886;151.198;2022-10-30T16:21:09;19.20;99.90
25991;DHT22;13779;-33.886;151.198;2022-10-30T16:23:45;19.20;99.90
25991;DHT22;13779;-33.886;151.198;2022-10-30T16:26:26;19.20;99.90
25991;DHT22;13779;-33.886;151.198;2022-10-30T16:31:47;19.00;99.90
25991;DHT22;13779;-33.886;151.198;2022-10-30T16:34:32;19.00;99.90
25991;DHT22;13779;-33.886;151.198;2022-10-30T16:37:05;19.00;99.90
25991;DHT22;13779;-33.886;151.198;2022-10-30T16:39:36;19.00;99.90
25991;DHT22;13779;-33.886;151.198;2022-10-30T16:42:06;19.00;99.90
25991;DHT22;13779;-33.886;151.198;2022-10-30T16:44:36;18.90;99.90
25991;DHT22;13779;-33.886;151.198;2022-10-30T16:49:53;18.90;99.90
25991;DHT22;13779;-33.886;151.198;2022-10-30T16:52:32;18.90;99.90
25991;DHT22;13779;-33.886;151.198;2022-10-30T16:55:19;18.90;99.90
25991;DHT22;13779;-33.886;151.198;2022-10-30T16:57:54;18.80;99.90
25991;DHT22;13779;-33.886;151.198;2022-10-30T17:00:27;18.90;99.90
25991;DHT22;13779;-33.886;151.198;2022-10-30T17:03:07;18.90;99.90
25991;DHT22;13779;-33.886;151.198;2022-10-30T17:05:40;18.90;99.90
25991;DHT22;13779;-33.886;151.198;2022-10-30T17:13:59;18.90;99.90
25991;DHT22;13779;-33.886;151.198;2022-10-30T17:16:32;18.90;99.90
25991;DHT22;13779;-33.886;151.198;2022-10-30T17:21:54;18.90;99.90
25991;DHT22;13779;-33.886;151.198;2022-10-30T17:24:34;18.90;99.90
25991;DHT22;13779;-33.886;151.198;2022-10-30T17:27:13;19.00;99.90
25991;DHT22;13779;-33.886;151.198;2022-10-30T17:29:52;19.00;99.90
25991;DHT22;13779;-33.886;151.198;2022-10-30T17:32:42;19.00;99.90
25991;DHT22;13779;-33.886;151.198;2022-10-30T17:35:15;19.00;99.90
25991;DHT22;13779;-33.886;151.198;2022-10-30T17:37:47;19.00;99.90
25991;DHT22;13779;-33.886;151.198;2022-10-30T17:40:17;19.00;99.90
25991;DHT22;13779;-33.886;151.198;2022-10-30T17:42:48;19.10;99.90
25991;DHT22;13779;-33.886;151.198;2022-10-30T17:45:18;19.10;99.90
25991;DHT22;13779;-33.886;151.198;2022-10-30T17:47:48;19.10;99.90
25991;DHT22;13779;-33.886;151.198;2022-10-30T17:50:18;19.10;99.90
25991;DHT22;13779;-33.886;151.198;2022-10-30T17:52:48;19.00;99.90
25991;DHT22;13779;-33.886;151.198;2022-10-30T17:55:26;19.00;99.90
25991;DHT22;13779;-33.886;151.198;2022-10-30T17:57:58;18.90;99.90
25991;DHT22;13779;-33.886;151.198;2022-10-30T18:00:28;18.90;99.90
25991;DHT22;13779;-33.886;151.198;2022-10-30T18:02:58;18.90;99.90
25991;DHT22;13779;-33.886;151.198;2022-10-30T18:05:29;18.90;99.90
25991;DHT22;13779;-33.886;151.198;2022-10-30T18:08:01;18.80;99.90
25991;DHT22;13779;-33.886;151.198;2022-10-30T18:10:31;18.80;99.90
25991;DHT22;13779;-33.886;151.198;2022-10-30T18:13:01;18.80;99.90
25991;DHT22;13779;-33.886;151.198;2022-10-30T18:15:37;18.80;99.90
25991;DHT22;13779;-33.886;151.198;2022-10-30T18:18:09;18.90;99.90
25991;DHT22;13779;-33.886;151.198;2022-10-30T18:20:39;18.90;99.90
25991;DHT22;13779;-33.886;151.198;2022-10-30T18:23:20;18.90;99.90
25991;DHT22;13779;-33.886;151.198;2022-10-30T18:26:28;18.90;99.90
25991;DHT22;13779;-33.886;151.198;2022-10-30T18:29:02;18.90;99.90